createdAt,value
2022-12-26T00:01:11.953Z,99964.72
2022-12-26T00:03:40.323Z,99955.53
2022-12-26T00:06:14.869Z,99955.53
2022-12-26T00:08:42.981Z,99958.94
2022-12-26T00:11:11.220Z,99948.94
2022-12-26T00:13:41.612Z,99953.06
2022-12-26T00:16:11.840Z,99957.13
2022-12-26T00:18:40.078Z,99937.13
2022-12-26T00:21:08.732Z,99934.63
2022-12-26T00:23:38.716Z,99930.44
2022-12-26T00:26:08.269Z,99922.94
2022-12-26T00:28:36.503Z,99930.47
2022-12-26T00:31:05.649Z,99922.25
2022-12-26T00:33:35.439Z,99928.03
2022-12-26T00:36:04.159Z,99927.25
2022-12-26T00:38:32.553Z,99938.97
2022-12-26T00:41:01.855Z,99951.44
2022-12-26T00:43:29.725Z,99955.53
2022-12-26T00:45:59.174Z,99954.81
2022-12-26T00:48:27.455Z,99953.94
2022-12-26T00:50:55.831Z,99943.22
2022-12-26T00:53:24.444Z,99946.56
2022-12-26T00:55:53.016Z,99947.34
2022-12-26T00:58:23.165Z,99949.81
2022-12-26T01:00:51.802Z,99911.72
2022-12-26T01:03:20.504Z,99935.53
2022-12-26T01:05:51.020Z,99952.16
2022-12-26T01:08:24.622Z,99951.31
2022-12-26T01:10:53.662Z,99956.31
2022-12-26T01:13:22.912Z,99947.47
2022-12-26T01:15:51.841Z,99968.81
2022-12-26T01:18:19.903Z,99963.81
2022-12-26T01:20:48.673Z,99951.31
2022-12-26T01:23:17.624Z,99943.81
2022-12-26T01:26:18.455Z,99942.13
2022-12-26T01:28:34.879Z,99949.66
2022-12-26T01:31:03.661Z,99952.97
2022-12-26T01:33:31.982Z,99959.66
2022-12-26T01:36:00.720Z,99959.63
2022-12-26T01:38:28.965Z,99963.81
2022-12-26T01:41:10.850Z,99959.63
2022-12-26T01:44:01.441Z,99959.66
2022-12-26T01:46:34.791Z,99958.81
2022-12-26T01:49:08.765Z,99954.50
2022-12-26T01:51:41.305Z,99952.81
2022-12-26T01:54:39.365Z,99956.91
2022-12-26T01:57:03.994Z,99959.44
2022-12-26T01:59:40.826Z,99960.31
2022-12-26T02:02:10.086Z,99956.16
2022-12-26T02:05:02.499Z,99951.16
2022-12-26T02:07:30.443Z,99936.91
2022-12-26T02:09:58.395Z,99948.72
2022-12-26T02:12:37.361Z,99963.72
2022-12-26T02:15:12.059Z,99976.19
2022-12-26T02:17:40.930Z,99968.69
2022-12-26T02:20:18.365Z,99957.00
2022-12-26T02:23:32.343Z,99957.91
2022-12-26T02:26:38.761Z,99946.22
2022-12-26T02:29:36.749Z,99947.75
2022-12-26T02:32:12.832Z,99942.00
2022-12-26T02:34:51.025Z,99936.22
2022-12-26T02:37:29.309Z,99938.59
2022-12-26T02:40:17.741Z,99933.31
2022-12-26T02:42:58.996Z,99948.59
2022-12-26T02:45:52.393Z,99938.50
2022-12-26T02:48:31.213Z,99938.50
2022-12-26T02:51:28.048Z,99933.50
2022-12-26T02:54:24.724Z,99932.72
2022-12-26T02:57:14.147Z,99931.06
2022-12-26T03:00:08.600Z,99918.34
2022-12-26T03:02:59.249Z,99922.81
2022-12-26T03:05:51.996Z,99931.16
2022-12-26T03:08:43.862Z,99926.16
2022-12-26T03:11:29.156Z,99929.31
2022-12-26T03:14:06.527Z,99923.41
2022-12-26T03:16:53.020Z,99909.81
2022-12-26T03:19:22.753Z,99923.47
2022-12-26T03:21:52.917Z,99935.22
2022-12-26T03:24:23.510Z,99946.91
2022-12-26T03:26:54.108Z,99946.06
2022-12-26T03:29:42.034Z,99955.19
2022-12-26T03:32:12.883Z,99961.78
2022-12-26T03:34:44.341Z,99942.34
2022-12-26T03:37:48.305Z,99959.22
2022-12-26T03:40:47.286Z,99950.09
2022-12-26T03:43:44.098Z,99948.34
2022-12-26T03:46:41.070Z,99941.63
2022-12-26T03:49:35.268Z,99934.81
2022-12-26T03:52:25.003Z,99932.16
2022-12-26T03:55:21.323Z,99936.22
2022-12-26T03:58:12.969Z,99934.59
2022-12-26T04:01:00.874Z,99915.78
2022-12-26T04:03:50.481Z,99935.88
2022-12-26T04:06:40.252Z,99943.63
2022-12-26T04:09:30.978Z,99940.03
2022-12-26T04:12:20.881Z,99945.75
2022-12-26T04:15:11.166Z,99944.63
2022-12-26T04:18:01.344Z,99962.09
2022-12-26T04:20:36.300Z,99950.22
2022-12-26T04:23:25.819Z,99943.50
2022-12-26T04:26:17.668Z,99944.44
2022-12-26T04:29:04.285Z,99940.22
2022-12-26T04:31:55.323Z,99936.03
2022-12-26T04:34:49.105Z,99944.72
2022-12-26T04:37:40.546Z,99951.50
2022-12-26T04:40:32.391Z,99956.47
2022-12-26T04:43:49.903Z,99966.63
2022-12-26T04:46:08.194Z,99968.28
2022-12-26T04:49:01.999Z,99962.56
2022-12-26T04:51:30.334Z,99954.88
2022-12-26T04:53:58.237Z,99958.91
2022-12-26T04:56:26.253Z,99956.47
2022-12-26T04:58:54.169Z,99955.75
2022-12-26T05:01:40.949Z,99952.50
2022-12-26T05:04:33.446Z,99954.25
2022-12-26T05:07:20.812Z,99948.47
2022-12-26T05:09:51.087Z,99959.09
2022-12-26T05:12:19.282Z,99950.22
2022-12-26T05:14:47.160Z,99950.22
2022-12-26T05:17:34.161Z,99945.00
2022-12-26T05:20:19.605Z,99936.34
2022-12-26T05:23:05.300Z,99925.09
2022-12-26T05:25:53.480Z,99942.63
2022-12-26T05:28:39.302Z,99937.50
2022-12-26T05:31:07.494Z,99938.16
2022-12-26T05:33:54.169Z,99942.97
2022-12-26T05:36:24.286Z,99961.09
2022-12-26T05:38:52.470Z,99953.56
2022-12-26T05:41:20.669Z,99955.94
2022-12-26T05:43:48.569Z,99965.81
2022-12-26T05:46:16.481Z,99968.13
2022-12-26T05:48:45.817Z,99967.97
2022-12-26T05:51:13.766Z,99961.22
2022-12-26T05:53:41.963Z,99959.38
2022-12-26T05:56:13.828Z,99967.44
2022-12-26T05:58:42.207Z,99960.88
2022-12-26T06:01:13.487Z,99954.28
2022-12-26T06:03:43.377Z,99967.66
2022-12-26T06:06:12.728Z,99971.06
2022-12-26T06:08:42.056Z,99979.78
2022-12-26T06:11:11.678Z,99977.69
2022-12-26T06:13:40.803Z,99986.53
2022-12-26T06:16:10.790Z,99988.03
2022-12-26T06:18:39.157Z,99985.81
2022-12-26T06:21:08.829Z,99982.59
2022-12-26T06:23:38.826Z,99991.19
2022-12-26T06:26:09.055Z,99984.69
2022-12-26T06:28:37.840Z,99992.47
2022-12-26T06:31:07.282Z,99986.03
2022-12-26T06:33:35.569Z,99989.56
2022-12-26T06:36:05.698Z,100000.50
2022-12-26T06:38:33.982Z,100014.16
2022-12-26T06:41:05.697Z,100006.88
2022-12-26T06:43:33.558Z,100008.63
2022-12-26T06:46:03.163Z,100005.22
2022-12-26T06:48:33.253Z,100009.53
2022-12-26T06:51:05.594Z,100006.88
2022-12-26T06:53:35.167Z,100011.78
2022-12-26T06:56:08.841Z,100010.88
2022-12-26T06:58:37.041Z,100019.09
2022-12-26T07:01:06.168Z,100010.41
2022-12-26T07:03:34.157Z,100015.59
2022-12-26T07:06:04.886Z,100017.19
2022-12-26T07:08:33.309Z,100016.19
2022-12-26T07:11:02.076Z,100005.97
2022-12-26T07:13:31.352Z,100016.06
2022-12-26T07:16:00.188Z,100012.72
2022-12-26T07:18:28.067Z,100019.22
2022-12-26T07:20:55.912Z,100017.41
2022-12-26T07:23:23.783Z,100023.16
2022-12-26T07:25:51.566Z,100027.28
2022-12-26T07:28:19.446Z,100023.75
2022-12-26T07:30:50.745Z,100027.16
2022-12-26T07:33:19.758Z,100015.34
2022-12-26T07:35:47.725Z,100026.53
2022-12-26T07:38:15.574Z,100025.69
2022-12-26T07:40:43.443Z,100020.75
2022-12-26T07:43:11.536Z,100022.50
2022-12-26T07:45:45.240Z,100023.44
2022-12-26T07:48:15.161Z,100030.91
2022-12-26T07:50:47.026Z,100027.75
2022-12-26T07:53:15.502Z,100009.38
2022-12-26T07:55:43.601Z,100013.81
2022-12-26T07:58:11.505Z,100021.25
2022-12-26T08:00:39.592Z,100027.63
2022-12-26T08:03:08.463Z,100032.50
2022-12-26T08:05:37.899Z,100025.69
2022-12-26T08:08:08.130Z,100038.59
2022-12-26T08:10:36.036Z,100043.06
2022-12-26T08:13:03.956Z,100047.25
2022-12-26T08:15:31.775Z,100042.28
2022-12-26T08:17:59.587Z,100039.00
2022-12-26T08:20:28.646Z,100039.78
2022-12-26T08:25:30.819Z,100043.06
2022-12-26T08:27:58.690Z,100036.41
2022-12-26T08:30:26.646Z,100018.44
2022-12-26T08:32:54.635Z,100040.88
2022-12-26T08:35:22.583Z,100051.97
2022-12-26T08:37:50.361Z,100044.53
2022-12-26T08:40:40.011Z,100045.38
2022-12-26T08:43:53.243Z,100063.66
2022-12-26T08:46:00.007Z,100063.25
2022-12-26T08:48:28.521Z,100058.84
2022-12-26T08:50:57.949Z,100076.75
2022-12-26T08:53:26.337Z,100069.59
2022-12-26T08:55:55.846Z,100068.16
2022-12-26T08:58:23.722Z,100079.34
2022-12-26T09:00:55.408Z,100085.34
2022-12-26T09:03:23.857Z,100088.75
2022-12-26T09:05:53.535Z,100091.38
2022-12-26T09:08:21.391Z,100086.50
2022-12-26T09:10:49.256Z,100085.00
2022-12-26T09:13:20.928Z,100082.69
2022-12-26T09:15:48.751Z,100082.06
2022-12-26T09:18:16.647Z,100083.94
2022-12-26T09:20:44.552Z,100084.19
2022-12-26T09:23:12.542Z,100077.84
2022-12-26T09:25:40.557Z,100083.81
2022-12-26T09:28:09.343Z,100064.69
2022-12-26T09:30:39.310Z,100073.38
2022-12-26T09:33:08.259Z,100065.06
2022-12-26T09:35:36.175Z,100080.06
2022-12-26T09:38:04.050Z,100089.84
2022-12-26T09:40:44.205Z,100069.69
2022-12-26T09:43:22.328Z,100071.66
2022-12-26T09:46:05.901Z,100069.28
2022-12-26T09:48:40.511Z,100067.75
2022-12-26T09:51:10.987Z,100057.47
2022-12-26T09:53:44.097Z,100085.38
2022-12-26T09:56:36.921Z,100072.06
2022-12-26T09:59:08.643Z,100060.47
2022-12-26T10:01:38.410Z,100041.88
2022-12-26T10:04:28.421Z,100043.97
2022-12-26T10:07:11.642Z,100040.06
2022-12-26T10:09:59.477Z,100039.16
2022-12-26T10:12:37.388Z,100032.47
2022-12-26T10:15:16.095Z,100027.22
2022-12-26T10:17:50.917Z,100026.50
2022-12-26T10:20:25.565Z,100036.06
2022-12-26T10:23:16.163Z,100035.25
2022-12-26T10:25:48.115Z,100034.25
2022-12-26T10:28:21.448Z,100020.78
2022-12-26T10:30:51.627Z,100002.03
2022-12-26T10:33:36.400Z,100002.56
2022-12-26T10:36:04.729Z,100006.56
2022-12-26T10:38:38.887Z,100007.50
2022-12-26T10:41:12.449Z,100007.50
2022-12-26T10:43:44.847Z,100006.66
2022-12-26T10:46:45.840Z,99998.34
2022-12-26T10:49:18.082Z,99995.16
2022-12-26T10:51:46.382Z,99987.69
2022-12-26T10:54:17.978Z,99983.34
2022-12-26T10:56:48.351Z,99972.28
2022-12-26T10:59:20.001Z,99988.53
2022-12-26T11:01:48.666Z,99986.09
2022-12-26T11:04:44.532Z,99976.97
2022-12-26T11:07:12.498Z,99976.94
2022-12-26T11:09:43.992Z,99989.53
2022-12-26T11:12:21.800Z,99980.53
2022-12-26T11:14:50.199Z,99974.94
2022-12-26T11:17:28.015Z,99981.06
2022-12-26T11:20:22.312Z,99978.03
2022-12-26T11:22:50.575Z,99974.97
2022-12-26T11:25:21.452Z,99962.28
2022-12-26T11:27:51.281Z,99964.97
2022-12-26T11:30:29.466Z,99975.09
2022-12-26T11:33:14.907Z,99967.38
2022-12-26T11:35:51.306Z,99965.59
2022-12-26T11:38:44.084Z,99967.91
2022-12-26T11:41:39.467Z,99958.56
2022-12-26T11:44:18.531Z,99957.59
2022-12-26T11:46:49.996Z,99959.97
2022-12-26T11:49:21.995Z,99955.75
2022-12-26T11:51:58.478Z,99948.94
2022-12-26T11:54:34.246Z,99943.19
2022-12-26T11:57:10.192Z,99941.44
2022-12-26T11:59:38.453Z,99942.13
2022-12-26T12:02:27.895Z,99951.94
2022-12-26T12:05:00.671Z,99954.38
2022-12-26T12:08:07.014Z,99953.53
2022-12-26T12:10:49.484Z,99955.44
2022-12-26T12:13:44.132Z,99953.13
2022-12-26T12:16:32.338Z,99950.81
2022-12-26T12:19:14.362Z,99957.72
2022-12-26T12:21:45.895Z,99942.81
2022-12-26T12:24:34.282Z,99952.00
2022-12-26T12:27:12.778Z,99946.16
2022-12-26T12:29:54.056Z,99939.41
2022-12-26T12:32:30.014Z,99941.09
2022-12-26T12:35:16.446Z,99935.25
2022-12-26T12:37:57.706Z,99946.06
2022-12-26T12:40:33.058Z,99950.06
2022-12-26T12:43:11.945Z,99950.75
2022-12-26T12:45:49.229Z,99953.94
2022-12-26T12:48:32.663Z,99953.94
2022-12-26T12:51:11.026Z,99962.28
2022-12-26T12:53:58.275Z,99953.94
2022-12-26T12:56:35.803Z,99950.59
2022-12-26T12:59:23.988Z,99948.88
2022-12-26T13:01:56.473Z,99933.72
2022-12-26T13:04:29.554Z,99942.22
2022-12-26T13:07:00.759Z,99942.34
2022-12-26T13:09:31.673Z,99931.53
2022-12-26T13:12:03.498Z,99949.09
2022-12-26T13:14:38.446Z,99940.94
2022-12-26T13:17:11.006Z,99936.00
2022-12-26T13:19:48.664Z,99941.84
2022-12-26T13:22:26.903Z,99946.91
2022-12-26T13:24:59.957Z,99951.00
2022-12-26T13:27:31.784Z,99948.50
2022-12-26T13:30:01.068Z,99949.31
2022-12-26T13:32:31.306Z,99944.16
2022-12-26T13:35:01.820Z,99934.69
2022-12-26T13:37:56.498Z,99955.63
2022-12-26T13:40:28.783Z,99953.00
2022-12-26T13:43:19.449Z,99957.88
2022-12-26T13:45:52.631Z,99956.00
2022-12-26T13:48:56.905Z,99955.00
2022-12-26T13:51:46.598Z,99956.44
2022-12-26T13:54:16.245Z,99958.78
2022-12-26T13:57:26.727Z,99961.13
2022-12-26T14:00:07.035Z,99961.88
2022-12-26T14:03:20.447Z,99961.81
2022-12-26T14:06:13.295Z,99951.72
2022-12-26T14:08:54.698Z,99959.09
2022-12-26T14:11:38.373Z,99952.31
2022-12-26T14:14:17.394Z,99952.22
2022-12-26T14:16:51.926Z,99954.63
2022-12-26T14:19:36.344Z,99952.00
2022-12-26T14:22:12.293Z,99947.66
2022-12-26T14:24:55.626Z,99960.81
2022-12-26T14:27:34.048Z,99954.00
2022-12-26T14:30:18.936Z,99953.09
2022-12-26T14:33:01.672Z,99941.28
2022-12-26T14:35:35.064Z,99932.03
2022-12-26T14:38:18.870Z,99910.78
2022-12-26T14:41:01.353Z,99932.59
2022-12-26T14:43:36.985Z,99927.47
2022-12-26T14:46:10.755Z,99921.56
2022-12-26T14:48:55.891Z,99932.38
2022-12-26T14:51:42.880Z,99947.34
2022-12-26T14:54:32.030Z,99948.94
2022-12-26T14:57:00.517Z,99942.22
2022-12-26T14:59:31.268Z,99945.41
2022-12-26T15:02:10.467Z,99945.34
2022-12-26T15:04:53.764Z,99942.78
2022-12-26T15:08:09.779Z,99945.09
2022-12-26T15:11:22.985Z,99949.13
2022-12-26T15:14:41.309Z,99943.91
2022-12-26T15:17:22.123Z,99937.00
2022-12-26T15:20:32.495Z,99944.78
2022-12-26T15:23:30.377Z,99950.88
2022-12-26T15:26:19.911Z,99956.47
2022-12-26T15:29:19.193Z,99954.75
2022-12-26T15:31:59.857Z,99954.97
2022-12-26T15:34:45.738Z,99948.28
2022-12-26T15:37:25.171Z,99955.94
2022-12-26T15:40:02.394Z,99951.13
2022-12-26T15:42:43.569Z,99952.03
2022-12-26T15:45:30.642Z,99942.69
2022-12-26T15:48:05.169Z,99939.50
2022-12-26T15:50:45.773Z,99951.91
2022-12-26T15:53:25.762Z,99946.94
2022-12-26T15:56:05.486Z,99952.84
2022-12-26T15:58:53.756Z,99950.34
2022-12-26T16:01:38.123Z,99963.66
2022-12-26T16:04:13.487Z,99965.31
2022-12-26T16:06:54.552Z,99961.06
2022-12-26T16:09:37.627Z,99962.94
2022-12-26T16:12:21.904Z,99961.50
2022-12-26T16:14:50.772Z,99952.50
2022-12-26T16:17:22.177Z,99955.09
2022-12-26T16:19:51.672Z,99949.19
2022-12-26T16:22:46.460Z,99942.38
2022-12-26T16:25:18.281Z,99948.03
2022-12-26T16:27:48.918Z,99954.47
2022-12-26T16:30:19.791Z,99948.50
2022-12-26T16:32:48.291Z,99944.38
2022-12-26T16:35:20.489Z,99937.81
2022-12-26T16:37:49.338Z,99925.22
2022-12-26T16:40:21.763Z,99942.19
2022-12-26T16:43:00.760Z,99942.25
2022-12-26T16:45:31.291Z,99937.31
2022-12-26T16:47:59.843Z,99934.03
2022-12-26T16:50:32.511Z,99926.53
2022-12-26T16:53:10.691Z,99929.06
2022-12-26T16:55:43.178Z,99925.44
2022-12-26T16:58:19.501Z,99938.94
2022-12-26T17:00:51.526Z,99924.31
2022-12-26T17:03:28.193Z,99924.19
2022-12-26T17:05:57.217Z,99913.16
2022-12-26T17:08:26.081Z,99911.31
2022-12-26T17:10:54.510Z,99910.88
2022-12-26T17:13:27.572Z,99921.06
2022-12-26T17:15:58.425Z,99922.56
2022-12-26T17:18:46.199Z,99919.75
2022-12-26T17:21:32.416Z,99910.38
2022-12-26T17:24:26.056Z,99907.75
2022-12-26T17:27:09.677Z,99920.16
2022-12-26T17:29:51.000Z,99923.31
2022-12-26T17:32:42.351Z,99933.28
2022-12-26T17:35:16.065Z,99934.78
2022-12-26T17:37:45.238Z,99922.94
2022-12-26T17:40:28.202Z,99921.22
2022-12-26T17:43:05.059Z,99933.03
2022-12-26T17:45:34.242Z,99931.44
2022-12-26T17:48:02.124Z,99908.22
2022-12-26T17:50:32.562Z,99893.38
2022-12-26T17:53:05.869Z,99911.47
2022-12-26T17:55:34.558Z,99920.97
2022-12-26T17:58:02.432Z,99920.28
2022-12-26T18:00:30.784Z,99917.22
2022-12-26T18:03:00.215Z,99923.25
2022-12-26T18:05:28.230Z,99923.34
2022-12-26T18:07:56.734Z,99942.34
2022-12-26T18:10:28.651Z,99946.47
2022-12-26T18:12:57.061Z,99917.44
2022-12-26T18:15:26.977Z,99933.88
2022-12-26T18:17:55.547Z,99941.00
2022-12-26T18:20:28.796Z,99947.38
2022-12-26T18:22:57.464Z,99934.97
2022-12-26T18:25:27.819Z,99944.94
2022-12-26T18:27:55.679Z,99944.88
2022-12-26T18:30:26.557Z,99948.59
2022-12-26T18:32:55.092Z,99932.81
2022-12-26T18:35:24.375Z,99926.47
2022-12-26T18:37:53.960Z,99898.69
2022-12-26T18:40:31.897Z,99926.97
2022-12-26T18:42:59.832Z,99921.50
2022-12-26T18:45:28.147Z,99919.03
2022-12-26T18:47:56.509Z,99929.19
2022-12-26T18:50:26.436Z,99919.28
2022-12-26T18:52:54.412Z,99899.06
2022-12-26T18:55:23.042Z,99914.63
2022-12-26T18:57:51.254Z,99911.09
2022-12-26T19:00:20.581Z,99911.19
2022-12-26T19:02:49.204Z,99918.03
2022-12-26T19:05:19.079Z,99898.41
2022-12-26T19:07:50.100Z,99920.44
2022-12-26T19:10:19.504Z,99919.53
2022-12-26T19:12:47.742Z,99927.88
2022-12-26T19:15:16.474Z,99912.06
2022-12-26T19:17:44.624Z,99915.41
2022-12-26T19:20:19.744Z,99930.25
2022-12-26T19:22:50.323Z,99935.13
2022-12-26T19:25:19.543Z,99938.31
2022-12-26T19:27:48.449Z,99943.09
2022-12-26T19:30:17.661Z,99939.44
2022-12-26T19:32:45.566Z,99935.22
2022-12-26T19:35:14.964Z,99921.00
2022-12-26T19:37:43.576Z,99922.78
2022-12-26T19:40:18.391Z,99940.44
2022-12-26T19:42:49.763Z,99946.38
2022-12-26T19:45:18.026Z,99955.63
2022-12-26T19:47:45.915Z,99960.75
2022-12-26T19:50:13.928Z,99967.53
2022-12-26T19:52:41.803Z,99955.25
2022-12-26T19:55:13.463Z,99909.72
2022-12-26T19:57:41.386Z,99929.47
2022-12-26T20:00:11.642Z,99931.16
2022-12-26T20:02:42.665Z,99939.56
2022-12-26T20:05:11.220Z,99926.75
2022-12-26T20:07:39.056Z,99944.41
2022-12-26T20:10:07.658Z,99934.44
2022-12-26T20:12:36.881Z,99925.38
2022-12-26T20:15:05.207Z,99942.03
2022-12-26T20:17:33.071Z,99949.53
2022-12-26T20:20:01.024Z,99955.38
2022-12-26T20:22:29.198Z,99964.50
2022-12-26T20:24:57.043Z,99973.44
2022-12-26T20:27:24.979Z,99952.53
2022-12-26T20:29:54.238Z,99952.34
2022-12-26T20:32:22.125Z,99922.19
2022-12-26T20:34:50.104Z,99923.34
2022-12-26T20:37:18.769Z,99917.66
2022-12-26T20:39:46.709Z,99913.50
2022-12-26T20:42:16.385Z,99915.13
2022-12-26T20:44:44.568Z,99904.31
2022-12-26T20:47:13.754Z,99888.56
2022-12-26T20:49:41.882Z,99884.38
2022-12-26T20:52:09.814Z,99884.44
2022-12-26T20:54:37.679Z,99892.72
2022-12-26T20:57:05.513Z,99899.19
2022-12-26T20:59:33.365Z,99899.06
2022-12-26T21:02:01.547Z,99882.13
2022-12-26T21:04:30.954Z,99897.13
2022-12-26T21:06:58.843Z,99910.38
2022-12-26T21:09:26.990Z,99918.31
2022-12-26T21:11:54.909Z,99936.06
2022-12-26T21:14:25.323Z,99945.88
2022-12-26T21:16:55.530Z,99972.31
2022-12-26T21:19:24.957Z,99994.91
2022-12-26T21:21:55.782Z,99994.97
2022-12-26T21:24:25.867Z,100002.84
2022-12-26T21:26:54.388Z,100005.09
2022-12-26T21:29:26.118Z,100004.09
2022-12-26T21:31:57.016Z,99984.31
2022-12-26T21:34:27.801Z,99999.41
2022-12-26T21:37:14.701Z,99995.03
2022-12-26T21:39:43.659Z,99963.38
2022-12-26T21:42:11.826Z,99946.28
2022-12-26T21:44:40.400Z,99950.25
2022-12-26T21:47:08.853Z,99953.81
2022-12-26T21:49:36.954Z,99944.81
2022-12-26T21:52:07.715Z,99958.91
2022-12-26T21:54:53.307Z,99997.03
2022-12-26T21:57:22.512Z,99996.13
2022-12-26T21:59:59.865Z,99985.16
2022-12-26T22:02:47.819Z,99967.25
2022-12-26T22:05:16.745Z,99974.88
2022-12-26T22:07:46.353Z,99962.69
2022-12-26T22:10:35.387Z,99953.59
2022-12-26T22:13:03.352Z,99951.97
2022-12-26T22:15:48.890Z,99964.50
2022-12-26T22:18:17.011Z,99947.06
2022-12-26T22:20:45.923Z,99932.50
2022-12-26T22:23:15.567Z,99941.16
2022-12-26T22:25:43.677Z,99940.31
2022-12-26T22:28:11.705Z,99955.50
2022-12-26T22:30:39.599Z,99963.91
2022-12-26T22:33:07.407Z,99968.16
2022-12-26T22:35:35.330Z,99972.38
2022-12-26T22:38:03.190Z,99978.13
2022-12-26T22:40:32.490Z,99960.44
2022-12-26T22:43:00.430Z,99968.81
2022-12-26T22:45:28.311Z,99934.72
2022-12-26T22:47:56.354Z,99928.16
2022-12-26T22:50:24.292Z,99943.00
2022-12-26T22:52:52.946Z,99940.28
2022-12-26T22:55:20.846Z,99936.88
2022-12-26T22:57:52.664Z,99923.47
2022-12-26T23:00:21.106Z,99942.00
2022-12-26T23:02:48.992Z,99948.69
2022-12-26T23:05:17.390Z,99943.66
2022-12-26T23:07:46.032Z,99951.13
2022-12-26T23:10:19.455Z,99945.81
2022-12-26T23:12:48.005Z,99955.16
2022-12-26T23:15:19.708Z,99959.38
2022-12-26T23:18:09.624Z,99957.31
2022-12-26T23:20:56.388Z,99962.94
2022-12-26T23:23:25.066Z,99966.34
2022-12-26T23:25:52.982Z,99960.56
2022-12-26T23:28:38.772Z,99968.59
2022-12-26T23:31:08.567Z,99969.41
2022-12-26T23:33:36.521Z,99961.94
2022-12-26T23:36:04.758Z,99963.59
2022-12-26T23:38:32.723Z,99956.94
2022-12-26T23:41:00.590Z,99957.78
2022-12-26T23:43:28.526Z,99961.94
2022-12-26T23:45:56.375Z,99965.06
2022-12-26T23:48:25.613Z,99965.28
2022-12-26T23:51:02.114Z,99956.94
2022-12-26T23:53:30.263Z,99948.66
2022-12-26T23:55:58.379Z,99940.38
2022-12-26T23:58:26.784Z,99948.66
